Time;durP1;ratioP1;P1;durP2;ratioP2;P2;SDS_P1;SDS_P2;PMS_P1;PMS_P2;Temp;Humidity;BMP_temperature;BMP_pressure;BME280_temperature;BME280_humidity;BME280_pressure;Samples;Min_cycle;Max_cycle;Signal;HPM_P1;HPM_P2
2024/01/24 00:00:18;;;;;;;19.70;15.30;;;;;;;1.30;100.00;101077.42;86751;284;136955;-79
2024/01/24 00:02:19;;;;;;;20.10;15.40;;;;;;;1.30;100.00;101072.00;86987;285;24565;-78
2024/01/24 00:04:22;;;;;;;23.40;18.00;;;;;;;1.31;100.00;101071.40;86954;282;137000;-78
2024/01/24 00:06:24;;;;;;;20.90;16.70;;;;;;;1.31;100.00;101073.36;87059;285;23771;-76
2024/01/24 00:08:26;;;;;;;23.80;17.50;;;;;;;1.32;100.00;101072.95;86695;285;137972;-77
2024/01/24 00:10:28;;;;;;;21.80;16.30;;;;;;;1.30;100.00;101068.34;86770;282;22601;-71
2024/01/24 00:12:29;;;;;;;20.20;15.30;;;;;;;1.24;100.00;101066.34;86766;285;136032;-77
2024/01/24 00:14:31;;;;;;;24.30;18.30;;;;;;;1.18;100.00;101064.80;86938;285;25122;-76
2024/01/24 00:16:33;;;;;;;25.20;18.00;;;;;;;1.14;100.00;101064.75;86838;284;136209;-73
2024/01/24 00:18:35;;;;;;;22.70;17.70;;;;;;;1.17;100.00;101061.22;87400;271;25111;-73
2024/01/24 00:20:37;;;;;;;20.90;16.60;;;;;;;1.24;100.00;101056.52;87200;271;139412;-76
2024/01/24 00:22:38;;;;;;;20.10;16.40;;;;;;;1.26;100.00;101056.00;87261;271;22584;-77
2024/01/24 00:24:40;;;;;;;20.20;17.00;;;;;;;1.26;100.00;101055.31;87203;280;136721;-76
2024/01/24 00:26:42;;;;;;;22.50;17.90;;;;;;;1.28;100.00;101055.16;87239;271;25162;-78
2024/01/24 00:28:44;;;;;;;22.70;17.70;;;;;;;1.29;100.00;101054.72;87069;272;136921;-76
2024/01/24 00:30:46;;;;;;;19.70;15.80;;;;;;;1.31;100.00;101056.36;87177;267;24229;-76
2024/01/24 00:32:48;;;;;;;20.90;16.80;;;;;;;1.32;100.00;101053.66;87310;267;136891;-77
2024/01/24 00:34:50;;;;;;;23.00;17.80;;;;;;;1.31;100.00;101057.36;87308;263;25352;-79
2024/01/24 00:36:51;;;;;;;23.90;18.00;;;;;;;1.27;100.00;101053.83;87308;278;136800;-77
2024/01/24 00:38:53;;;;;;;23.70;19.00;;;;;;;1.23;100.00;101055.55;87172;275;25195;-77
2024/01/24 00:40:55;;;;;;;21.60;17.60;;;;;;;1.21;100.00;101055.00;87141;280;136365;-78
2024/01/24 00:43:00;;;;;;;25.40;18.10;;;;;;;1.23;100.00;101055.16;87283;280;24001;-78
2024/01/24 00:45:01;;;;;;;24.80;18.00;;;;;;;1.28;100.00;101057.81;88462;268;136802;-75
2024/01/24 00:47:04;;;;;;;22.90;18.10;;;;;;;1.30;100.00;101052.92;89285;268;23820;-76
2024/01/24 00:49:10;;;;;;;21.50;16.30;;;;;;;1.33;100.00;101050.05;87196;279;137877;-79
2024/01/24 00:51:12;;;;;;;24.40;17.80;;;;;;;1.36;100.00;101050.38;87342;273;25930;-75
2024/01/24 00:53:19;;;;;;;22.60;17.40;;;;;;;1.38;100.00;101045.75;87212;271;136787;-76
2024/01/24 00:55:22;;;;;;;23.80;17.30;;;;;;;1.38;100.00;101045.15;87253;279;25111;-76
2024/01/24 00:57:24;;;;;;;20.90;17.00;;;;;;;1.39;100.00;101044.80;87148;271;136786;-77
2024/01/24 00:59:25;;;;;;;26.40;16.70;;;;;;;1.27;100.00;101047.35;87116;272;25778;-77
2024/01/24 01:01:27;;;;;;;23.20;17.00;;;;;;;1.26;100.00;101047.98;86994;272;136079;-80
2024/01/24 01:03:29;;;;;;;22.30;16.90;;;;;;;1.20;100.00;101050.83;87093;272;22558;-76
2024/01/24 01:05:31;;;;;;;21.20;17.30;;;;;;;1.15;100.00;101048.02;87060;271;136246;-77
2024/01/24 01:07:33;;;;;;;22.50;17.60;;;;;;;1.11;100.00;101042.17;87177;271;24808;-79
2024/01/24 01:09:36;;;;;;;23.50;17.40;;;;;;;1.06;100.00;101034.53;86998;273;137152;-75
2024/01/24 01:11:38;;;;;;;23.60;17.00;;;;;;;1.05;100.00;101032.86;87133;268;24014;-77
2024/01/24 01:13:40;;;;;;;24.00;18.20;;;;;;;1.07;100.00;101033.54;87212;270;137492;-78
2024/01/24 01:15:43;;;;;;;25.00;18.80;;;;;;;1.09;100.00;101029.09;87282;273;24881;-76
2024/01/24 01:17:45;;;;;;;21.90;17.90;;;;;;;1.11;100.00;101028.38;87200;273;136723;-76
2024/01/24 01:19:47;;;;;;;23.50;17.60;;;;;;;1.13;100.00;101024.20;87244;269;24146;-76
2024/01/24 01:21:49;;;;;;;29.30;19.40;;;;;;;1.13;100.00;101024.71;87306;268;136702;-76
2024/01/24 01:23:51;;;;;;;24.50;18.30;;;;;;;1.13;100.00;101031.05;87298;270;22556;-76
2024/01/24 01:25:53;;;;;;;23.60;18.10;;;;;;;1.14;100.00;101029.69;87285;265;136839;-78
2024/01/24 01:27:54;;;;;;;25.20;18.20;;;;;;;1.16;100.00;101030.11;87338;269;25383;-75
2024/01/24 01:29:56;;;;;;;24.90;18.70;;;;;;;1.17;100.00;101029.85;87275;273;137262;-76
2024/01/24 01:31:58;;;;;;;21.70;17.20;;;;;;;1.15;100.00;101031.94;87375;269;25252;-77
2024/01/24 01:34:02;;;;;;;22.90;17.60;;;;;;;1.14;100.00;101025.37;87410;274;135946;-77
2024/01/24 01:36:04;;;;;;;23.40;19.30;;;;;;;1.12;100.00;101019.72;87263;273;136693;-79
2024/01/24 01:38:23;;;;;;;26.30;18.50;;;;;;;1.08;100.00;101019.11;87600;269;25054;-77
2024/01/24 01:40:25;;;;;;;24.00;18.90;;;;;;;1.11;100.00;101021.90;87332;269;138407;-76
2024/01/24 01:42:26;;;;;;;24.70;19.20;;;;;;;1.14;100.00;101019.05;87397;268;25934;-78
2024/01/24 01:44:29;;;;;;;24.80;18.00;;;;;;;1.17;100.00;101016.02;87245;276;138099;-78
2024/01/24 01:46:31;;;;;;;27.70;19.50;;;;;;;1.19;100.00;101016.94;87341;270;22573;-77
2024/01/24 01:48:34;;;;;;;25.60;19.40;;;;;;;1.19;100.00;101018.90;87530;273;136910;-77
2024/01/24 01:50:37;;;;;;;23.30;18.30;;;;;;;1.16;100.00;101020.48;87392;273;22565;-79
2024/01/24 01:52:40;;;;;;;23.10;18.70;;;;;;;1.17;100.00;101025.52;87374;276;136935;-79
2024/01/24 01:54:43;;;;;;;26.50;20.50;;;;;;;1.18;100.00;101018.25;87546;275;25108;-78
2024/01/24 01:56:46;;;;;;;23.60;18.30;;;;;;;1.22;100.00;101013.10;87535;271;137468;-75
2024/01/24 01:58:49;;;;;;;22.20;17.60;;;;;;;1.23;100.00;101009.16;88161;265;22573;-75
2024/01/24 02:00:51;;;;;;;23.10;18.80;;;;;;;1.21;100.00;101015.40;88504;273;136183;-76
2024/01/24 02:02:54;;;;;;;27.20;19.40;;;;;;;1.16;100.00;101008.94;88618;265;22516;-77
2024/01/24 02:04:56;;;;;;;27.10;20.80;;;;;;;1.10;100.00;101012.55;88650;268;136151;-77
2024/01/24 02:06:58;;;;;;;19.90;16.00;;;;;;;1.10;100.00;101013.02;89328;268;22636;-74
2024/01/24 02:09:02;;;;;;;20.50;17.30;;;;;;;1.13;100.00;101010.22;89352;265;137886;-77
2024/01/24 02:11:04;;;;;;;22.90;18.70;;;;;;;1.15;100.00;101010.05;88645;265;22657;-77
2024/01/24 02:13:06;;;;;;;24.50;18.80;;;;;;;1.19;100.00;101011.34;88818;269;137096;-79
2024/01/24 02:15:08;;;;;;;24.60;18.50;;;;;;;1.24;100.00;101010.30;89579;265;22699;-74
2024/01/24 02:17:10;;;;;;;28.00;20.80;;;;;;;1.28;100.00;101012.41;89666;265;136924;-75
2024/01/24 02:19:12;;;;;;;25.10;20.20;;;;;;;1.34;100.00;101013.94;89588;269;22599;-79
2024/01/24 02:21:15;;;;;;;25.80;18.60;;;;;;;1.40;100.00;101010.02;89316;265;138542;-75
2024/01/24 02:23:19;;;;;;;24.40;19.40;;;;;;;1.42;100.00;101006.20;89353;265;22576;-77
2024/01/24 02:25:22;;;;;;;21.80;19.30;;;;;;;1.44;100.00;101011.30;88062;279;136352;-76
2024/01/24 02:27:23;;;;;;;23.60;20.00;;;;;;;1.39;100.00;101006.07;87801;270;25086;-75
2024/01/24 02:29:25;;;;;;;30.90;20.90;;;;;;;1.36;100.00;101002.23;87460;277;136207;-79
2024/01/24 02:31:27;;;;;;;24.60;19.80;;;;;;;1.41;100.00;101005.02;87561;269;25076;-77
2024/01/24 02:33:29;;;;;;;24.70;19.90;;;;;;;1.48;100.00;101008.40;87329;271;137051;-77
2024/01/24 02:35:30;;;;;;;23.80;18.40;;;;;;;1.50;100.00;101009.23;87378;277;25146;-77
2024/01/24 02:37:32;;;;;;;23.10;18.30;;;;;;;1.49;100.00;101007.73;87295;269;137232;-72
2024/01/24 02:39:34;;;;;;;25.70;17.30;;;;;;;1.48;100.00;101008.20;87335;269;22567;-73
2024/01/24 02:41:39;;;;;;;23.40;18.10;;;;;;;1.48;100.00;101006.80;87237;269;138164;-79
2024/01/24 02:43:41;;;;;;;23.50;19.20;;;;;;;1.51;100.00;101010.63;87270;270;25107;-72
2024/01/24 02:45:43;;;;;;;25.80;18.90;;;;;;;1.54;100.00;101010.40;87204;272;137984;-73
2024/01/24 02:47:45;;;;;;;21.60;17.70;;;;;;;1.53;100.00;101009.20;87221;266;22720;-73
2024/01/24 02:49:48;;;;;;;23.60;18.10;;;;;;;1.46;100.00;101009.90;87180;273;137849;-71
2024/01/24 02:51:51;;;;;;;23.40;18.70;;;;;;;1.40;100.00;101007.23;87334;273;22536;-70
2024/01/24 02:53:52;;;;;;;25.80;19.10;;;;;;;1.35;100.00;101005.61;87181;273;137273;-73
2024/01/24 02:55:54;;;;;;;28.00;19.90;;;;;;;1.36;100.00;101003.66;87266;273;22576;-76
2024/01/24 02:57:56;;;;;;;24.80;19.90;;;;;;;1.41;100.00;101007.45;87137;270;137937;-73
2024/01/24 02:59:58;;;;;;;26.50;19.60;;;;;;;1.44;100.00;101008.67;87284;273;22555;-71
2024/01/24 03:01:59;;;;;;;26.60;18.70;;;;;;;1.46;100.00;101012.71;87241;273;136724;-72
2024/01/24 03:04:01;;;;;;;24.30;18.80;;;;;;;1.46;100.00;101010.79;87723;270;22624;-73
2024/01/24 03:06:04;;;;;;;24.20;19.60;;;;;;;1.44;100.00;101006.38;87772;265;26223;-72
2024/01/24 03:08:06;;;;;;;24.40;19.50;;;;;;;1.40;100.00;100994.98;87725;268;136668;-72
2024/01/24 03:10:08;;;;;;;25.50;20.20;;;;;;;1.33;100.00;100986.48;87285;278;25162;-76
2024/01/24 03:12:12;;;;;;;27.00;21.20;;;;;;;1.31;100.00;100984.23;87192;273;137863;-72
2024/01/24 03:14:14;;;;;;;27.20;21.10;;;;;;;1.32;100.00;100982.88;87357;278;25132;-72
2024/01/24 03:16:17;;;;;;;27.50;20.90;;;;;;;1.34;100.00;100983.44;87122;266;138481;-71
2024/01/24 03:18:19;;;;;;;25.10;20.30;;;;;;;1.34;100.00;100980.65;88281;265;24260;-73
2024/01/24 03:20:21;;;;;;;25.30;20.00;;;;;;;1.31;100.00;100978.57;87368;273;137939;-71
2024/01/24 03:22:24;;;;;;;25.60;20.00;;;;;;;1.32;100.00;100981.48;87378;273;25214;-73
2024/01/24 03:24:26;;;;;;;26.70;20.30;;;;;;;1.32;100.00;100985.13;87162;273;137324;-71
2024/01/24 03:26:28;;;;;;;27.80;21.90;;;;;;;1.34;100.00;100985.36;88457;274;25352;-73
2024/01/24 03:28:31;;;;;;;26.70;20.00;;;;;;;1.37;100.00;100981.98;87126;266;137379;-71
2024/01/24 03:30:33;;;;;;;23.30;18.90;;;;;;;1.41;100.00;100986.98;87197;277;25240;-71
2024/01/24 03:32:36;;;;;;;25.20;20.20;;;;;;;1.44;100.00;100995.17;87977;273;137767;-72
2024/01/24 03:34:37;;;;;;;28.40;20.20;;;;;;;1.47;100.00;100995.80;87242;269;22586;-73
2024/01/24 03:36:39;;;;;;;24.60;19.90;;;;;;;1.51;100.00;100995.92;87151;276;137340;-71
2024/01/24 03:38:43;;;;;;;27.30;20.10;;;;;;;1.49;100.00;100999.73;87252;265;25591;-73
2024/01/24 03:40:45;;;;;;;26.40;21.80;;;;;;;1.44;100.00;100995.55;87848;266;136366;-72
2024/01/24 03:42:47;;;;;;;26.80;20.50;;;;;;;1.41;100.00;100990.16;88279;273;22564;-76
2024/01/24 03:44:49;;;;;;;29.60;22.00;;;;;;;1.37;100.00;100989.16;87129;269;137130;-74
2024/01/24 03:46:52;;;;;;;28.90;22.30;;;;;;;1.38;100.00;100987.92;87242;265;22560;-75
2024/01/24 03:48:54;;;;;;;30.80;22.40;;;;;;;1.40;100.00;100979.91;87943;272;137184;-75
2024/01/24 03:50:55;;;;;;;32.50;23.50;;;;;;;1.43;100.00;100980.05;87836;268;25130;-77
2024/01/24 03:52:57;;;;;;;31.50;23.70;;;;;;;1.43;100.00;100977.58;87475;273;137818;-75
2024/01/24 03:55:00;;;;;;;34.00;24.80;;;;;;;1.43;100.00;100974.40;87365;269;22582;-75
2024/01/24 03:57:01;;;;;;;32.90;22.20;;;;;;;1.46;100.00;100973.30;87221;277;137278;-77
2024/01/24 03:59:03;;;;;;;29.30;21.50;;;;;;;1.48;100.00;100973.34;87283;277;23706;-78
2024/01/24 04:01:05;;;;;;;32.30;23.70;;;;;;;1.49;100.00;100966.63;87131;278;137685;-75
2024/01/24 04:03:07;;;;;;;32.20;24.00;;;;;;;1.50;100.00;100961.11;87841;271;22556;-77
2024/01/24 04:05:12;;;;;;;32.10;22.50;;;;;;;1.51;100.00;100959.44;87158;276;137478;-74
2024/01/24 04:07:13;;;;;;;32.00;23.90;;;;;;;1.53;100.00;100954.58;87282;277;24023;-76
2024/01/24 04:09:16;;;;;;;30.10;22.30;;;;;;;1.54;100.00;100955.35;87168;273;137217;-76
2024/01/24 04:11:18;;;;;;;34.00;24.30;;;;;;;1.54;100.00;100956.23;88251;265;25239;-76
2024/01/24 04:13:19;;;;;;;30.50;22.80;;;;;;;1.55;100.00;100953.17;87222;273;137127;-77
2024/01/24 04:15:21;;;;;;;36.60;24.40;;;;;;;1.53;100.00;100947.91;87409;270;24033;-76
2024/01/24 04:17:23;;;;;;;36.20;25.10;;;;;;;1.51;100.00;100950.32;87321;270;138687;-75
2024/01/24 04:19:26;;;;;;;37.60;24.50;;;;;;;1.49;100.00;100950.30;87329;273;26324;-74
2024/01/24 04:21:28;;;;;;;34.20;23.70;;;;;;;1.49;100.00;100954.86;87272;270;138119;-75
2024/01/24 04:23:30;;;;;;;34.40;22.90;;;;;;;1.49;100.00;100948.20;87606;262;22571;-75
2024/01/24 04:25:31;;;;;;;36.60;25.20;;;;;;;1.49;100.00;100952.92;87230;273;137320;-76
2024/01/24 04:27:33;;;;;;;42.40;26.10;;;;;;;1.48;100.00;100954.61;87340;268;22576;-77
2024/01/24 04:29:36;;;;;;;41.70;25.40;;;;;;;1.48;100.00;100962.83;87230;265;138528;-76
2024/01/24 04:31:38;;;;;;;31.20;24.10;;;;;;;1.51;100.00;100969.08;87272;266;22569;-74
2024/01/24 04:33:40;;;;;;;38.00;26.20;;;;;;;1.57;100.00;100966.89;87251;273;137234;-76
2024/01/24 04:35:42;;;;;;;35.60;26.00;;;;;;;1.61;100.00;100963.05;87460;274;22692;-77
2024/01/24 04:37:44;;;;;;;36.90;27.40;;;;;;;1.64;100.00;100967.05;87209;268;136660;-75
2024/01/24 04:39:46;;;;;;;39.10;27.90;;;;;;;1.64;100.00;100964.45;87299;277;25185;-77
2024/01/24 04:41:48;;;;;;;37.20;26.60;;;;;;;1.64;100.00;100961.65;87296;270;137922;-76
2024/01/24 04:43:55;;;;;;;41.40;27.70;;;;;;;1.62;100.00;100956.36;87671;265;22568;-77
2024/01/24 04:45:57;;;;;;;36.20;26.50;;;;;;;1.63;100.00;100955.05;87368;274;136810;-76
2024/01/24 04:47:59;;;;;;;35.80;25.70;;;;;;;1.68;100.00;100954.16;87565;270;24154;-78
2024/01/24 04:50:01;;;;;;;41.30;28.60;;;;;;;1.69;100.00;100952.52;87464;273;137949;-78
2024/01/24 04:52:04;;;;;;;43.60;27.00;;;;;;;1.69;100.00;100950.58;87375;277;137259;-79
2024/01/24 04:54:06;;;;;;;36.70;25.20;;;;;;;1.70;100.00;100954.65;87643;270;22566;-76
2024/01/24 04:56:07;;;;;;;35.70;25.70;;;;;;;1.71;100.00;100956.17;87202;270;137371;-77
2024/01/24 04:58:09;;;;;;;39.10;27.10;;;;;;;1.75;100.00;100960.08;87340;270;25217;-76
2024/01/24 05:00:13;;;;;;;39.00;28.30;;;;;;;1.78;100.00;100963.39;87181;271;136824;-77
2024/01/24 05:02:15;;;;;;;41.80;27.60;;;;;;;1.80;100.00;100960.11;87356;277;22564;-77
2024/01/24 05:04:17;;;;;;;42.50;28.40;;;;;;;1.76;100.00;100953.88;87307;273;136491;-77
2024/01/24 05:06:20;;;;;;;41.60;28.70;;;;;;;1.75;100.00;100956.97;87436;270;22560;-75
2024/01/24 05:08:22;;;;;;;34.60;25.00;;;;;;;1.71;100.00;100954.80;87260;277;136373;-77
2024/01/24 05:10:24;;;;;;;38.50;27.40;;;;;;;1.72;100.00;100959.13;87684;269;25152;-75
2024/01/24 05:12:26;;;;;;;34.60;24.40;;;;;;;1.76;100.00;100966.34;87155;267;136886;-76
2024/01/24 05:14:28;;;;;;;43.90;29.20;;;;;;;1.79;100.00;100965.78;87258;273;22947;-75
2024/01/24 05:16:30;;;;;;;40.10;27.60;;;;;;;1.79;100.00;100961.94;87034;273;137063;-74
2024/01/24 05:18:32;;;;;;;42.50;29.00;;;;;;;1.81;100.00;100959.64;87429;273;22486;-75
2024/01/24 05:20:33;;;;;;;36.80;24.60;;;;;;;1.84;100.00;100962.04;87693;273;136931;-72
2024/01/24 05:22:35;;;;;;;40.90;26.40;;;;;;;1.85;100.00;100962.86;87410;269;22571;-73
2024/01/24 05:24:37;;;;;;;45.90;28.50;;;;;;;1.86;100.00;100961.76;87729;270;136775;-72
2024/01/24 05:26:39;;;;;;;35.20;26.80;;;;;;;1.86;100.00;100960.88;87649;273;25076;-72
2024/01/24 05:28:41;;;;;;;39.60;26.70;;;;;;;1.81;100.00;100963.00;87110;264;137537;-72
2024/01/24 05:30:43;;;;;;;36.20;26.60;;;;;;;1.76;100.00;100963.20;87151;270;22567;-73
2024/01/24 05:32:46;;;;;;;41.80;28.00;;;;;;;1.69;100.00;100969.98;87200;273;136644;-72
2024/01/24 05:34:49;;;;;;;43.10;29.00;;;;;;;1.70;100.00;100967.45;87757;273;25182;-72
2024/01/24 05:36:53;;;;;;;40.80;29.30;;;;;;;1.77;100.00;100960.33;87718;265;136956;-73
2024/01/24 05:38:55;;;;;;;44.50;29.50;;;;;;;1.82;100.00;100949.57;87710;265;26245;-72
2024/01/24 05:40:57;;;;;;;45.10;31.10;;;;;;;1.87;100.00;100945.91;87776;269;138331;-72
2024/01/24 05:42:59;;;;;;;41.20;27.90;;;;;;;1.91;100.00;100968.20;87762;274;24029;-73
2024/01/24 05:45:02;;;;;;;37.00;26.70;;;;;;;1.94;100.00;100979.34;87692;262;138083;-74
2024/01/24 05:47:04;;;;;;;38.20;27.00;;;;;;;1.92;100.00;100973.52;87647;273;22511;-70
2024/01/24 05:49:06;;;;;;;41.20;28.10;;;;;;;1.85;100.00;100964.25;87475;266;137649;-74
2024/01/24 05:51:08;;;;;;;36.20;28.20;;;;;;;1.81;100.00;100961.94;87261;265;25092;-68
2024/01/24 05:53:09;;;;;;;33.60;25.50;;;;;;;1.80;100.00;100967.63;87093;269;136488;-67
2024/01/24 05:55:12;;;;;;;40.10;26.70;;;;;;;1.79;100.00;100961.58;87098;273;23576;-68
2024/01/24 05:57:14;;;;;;;36.10;26.10;;;;;;;1.81;100.00;100966.31;87461;270;137224;-67
2024/01/24 05:59:18;;;;;;;33.90;24.60;;;;;;;1.87;100.00;100969.93;87120;273;24155;-66
2024/01/24 06:01:21;;;;;;;32.10;22.90;;;;;;;1.91;100.00;100970.26;87089;278;136793;-69
2024/01/24 06:03:23;;;;;;;34.60;23.10;;;;;;;1.94;100.00;100966.50;87030;270;22561;-68
2024/01/24 06:05:25;;;;;;;38.60;25.90;;;;;;;1.92;100.00;100970.41;87036;264;136359;-67
2024/01/24 06:07:27;;;;;;;36.10;24.80;;;;;;;1.87;100.00;100969.34;87134;265;22873;-68
2024/01/24 06:09:29;;;;;;;33.20;24.60;;;;;;;1.86;100.00;100965.80;87064;268;136390;-67
2024/01/24 06:11:31;;;;;;;33.10;24.60;;;;;;;1.84;100.00;100969.06;87172;273;24041;-68
2024/01/24 06:13:33;;;;;;;32.30;22.20;;;;;;;1.80;100.00;100969.77;87104;269;136573;-65
2024/01/24 06:15:35;;;;;;;34.50;24.40;;;;;;;1.83;100.00;100973.89;87284;269;24084;-67
2024/01/24 06:17:37;;;;;;;33.10;24.10;;;;;;;1.92;100.00;100974.91;89149;269;137080;-67
2024/01/24 06:19:39;;;;;;;37.40;25.10;;;;;;;1.96;100.00;100974.30;87283;277;23734;-67
2024/01/24 06:21:41;;;;;;;33.40;25.30;;;;;;;1.94;100.00;100967.22;86986;274;136177;-65
2024/01/24 06:23:43;;;;;;;31.30;23.50;;;;;;;1.92;100.00;100971.94;87262;268;22774;-64
2024/01/24 06:25:44;;;;;;;37.80;26.30;;;;;;;1.89;100.00;100968.88;86993;273;136778;-69
2024/01/24 06:27:46;;;;;;;34.80;25.40;;;;;;;1.83;100.00;100966.86;87174;265;24048;-65
2024/01/24 06:29:48;;;;;;;41.50;25.70;;;;;;;1.78;100.00;100971.45;87151;269;137431;-67
2024/01/24 06:32:10;;;;;;;32.50;22.30;;;;;;;1.82;100.00;100965.05;87137;273;137204;-67
2024/01/24 06:34:13;;;;;;;32.00;23.60;;;;;;;1.87;100.00;100959.70;87208;268;22624;-65
2024/01/24 06:36:15;;;;;;;36.30;25.60;;;;;;;1.91;100.00;100949.96;87164;273;138091;-69
2024/01/24 06:38:17;;;;;;;33.50;24.70;;;;;;;1.88;100.00;100952.83;87206;273;22559;-67
2024/01/24 06:40:19;;;;;;;37.70;24.50;;;;;;;1.84;100.00;100955.95;87130;273;136826;-66
2024/01/24 06:42:21;;;;;;;30.10;20.20;;;;;;;1.80;100.00;100953.73;87491;270;22584;-65
2024/01/24 06:44:25;;;;;;;30.40;23.80;;;;;;;1.75;100.00;100952.54;87117;269;140569;-67
2024/01/24 06:46:27;;;;;;;32.10;20.90;;;;;;;1.74;100.00;100954.39;87552;270;24135;-66
2024/01/24 06:48:29;;;;;;;36.20;21.60;;;;;;;1.83;100.00;100954.91;87060;273;138348;-66
2024/01/24 06:50:31;;;;;;;27.70;19.90;;;;;;;1.91;100.00;100947.14;87204;269;25079;-67
2024/01/24 06:52:33;;;;;;;30.20;19.70;;;;;;;1.93;100.00;100944.20;87079;270;136816;-67
2024/01/24 06:54:35;;;;;;;31.20;21.50;;;;;;;1.90;100.00;100942.70;87206;277;22576;-67
2024/01/24 06:56:37;;;;;;;26.30;18.30;;;;;;;1.82;100.00;100948.03;87134;273;137903;-67
2024/01/24 06:58:40;;;;;;;34.70;23.00;;;;;;;1.75;100.00;100945.91;87279;269;22648;-67
2024/01/24 07:00:42;;;;;;;28.90;20.10;;;;;;;1.67;100.00;100937.45;87236;278;137980;-70
2024/01/24 07:02:48;;;;;;;35.20;22.70;;;;;;;1.65;100.00;100938.06;86597;273;800350;-67
2024/01/24 07:04:51;;;;;;;32.20;21.90;;;;;;;1.62;100.00;100939.54;87285;274;137253;-67
2024/01/24 07:06:53;;;;;;;29.70;20.30;;;;;;;1.58;100.00;100940.35;87194;265;24014;-68
2024/01/24 07:08:56;;;;;;;35.60;22.00;;;;;;;1.57;100.00;100932.54;87024;273;137004;-65
2024/01/24 07:10:57;;;;;;;26.90;19.20;;;;;;;1.58;100.00;100937.03;87231;268;24068;-68
2024/01/24 07:13:00;;;;;;;37.30;22.00;;;;;;;1.60;100.00;100933.38;87108;268;137073;-67
2024/01/24 07:15:03;;;;;;;32.80;20.90;;;;;;;1.58;100.00;100922.70;87216;273;23970;-68
2024/01/24 07:17:05;;;;;;;40.90;23.90;;;;;;;1.57;100.00;100918.40;87347;269;136529;-65
2024/01/24 07:19:07;;;;;;;30.40;21.40;;;;;;;1.54;100.00;100925.08;87222;269;25326;-66
2024/01/24 07:21:09;;;;;;;31.30;20.00;;;;;;;1.57;100.00;100927.78;87083;273;137267;-67
2024/01/24 07:23:12;;;;;;;31.40;21.40;;;;;;;1.65;100.00;100930.54;87150;269;22696;-65
2024/01/24 07:25:14;;;;;;;32.50;21.00;;;;;;;1.68;100.00;100930.11;87116;273;137152;-67
2024/01/24 07:27:16;;;;;;;32.40;21.90;;;;;;;1.73;100.00;100938.84;87336;273;22551;-66
2024/01/24 07:29:18;;;;;;;31.70;21.60;;;;;;;1.77;100.00;100936.30;86926;270;136949;-66
2024/01/24 07:31:21;;;;;;;33.00;21.40;;;;;;;1.71;100.00;100939.55;87270;270;22629;-67
2024/01/24 07:33:23;;;;;;;33.60;22.90;;;;;;;1.70;100.00;100947.00;87135;273;136856;-65
2024/01/24 07:35:26;;;;;;;35.70;22.50;;;;;;;1.68;100.00;100949.58;87417;273;22513;-67
2024/01/24 07:37:27;;;;;;;32.90;22.10;;;;;;;1.67;100.00;100947.91;86902;269;135995;-65
2024/01/24 07:39:29;;;;;;;34.60;21.20;;;;;;;1.76;100.00;100946.17;86970;273;22555;-65
2024/01/24 07:41:31;;;;;;;35.60;21.70;;;;;;;1.85;100.00;100940.60;87046;270;138541;-66
2024/01/24 07:43:33;;;;;;;33.20;23.10;;;;;;;1.89;100.00;100932.95;87218;270;25099;-70
2024/01/24 07:45:36;;;;;;;41.70;23.20;;;;;;;1.92;100.00;100927.09;86994;269;137180;-68
2024/01/24 07:47:38;;;;;;;44.20;25.90;;;;;;;1.93;100.00;100914.54;87247;273;23060;-69
2024/01/24 07:49:41;;;;;;;34.80;24.00;;;;;;;1.97;100.00;100911.60;88544;269;137298;-66
2024/01/24 07:51:46;;;;;;;37.10;24.80;;;;;;;1.94;100.00;100912.23;87167;269;22590;-69
2024/01/24 07:53:50;;;;;;;35.30;23.10;;;;;;;1.90;100.00;100904.66;86928;277;137960;-66
2024/01/24 07:55:53;;;;;;;37.10;21.60;;;;;;;1.97;100.00;100903.23;87214;273;22577;-66
2024/01/24 07:58:11;;;;;;;32.90;21.10;;;;;;;2.03;100.00;100898.58;90378;269;22346;-67
2024/01/24 08:00:16;;;;;;;32.90;21.70;;;;;;;2.01;100.00;100891.18;88266;270;138499;-68
2024/01/24 08:02:19;;;;;;;31.60;22.80;;;;;;;2.05;100.00;100883.99;87439;268;26297;-66
2024/01/24 08:04:21;;;;;;;38.40;24.20;;;;;;;2.13;100.00;100884.96;87067;268;138587;-65
2024/01/24 08:06:23;;;;;;;40.20;24.50;;;;;;;2.16;100.00;100880.57;87207;264;22560;-69
2024/01/24 08:08:26;;;;;;;37.50;24.00;;;;;;;2.16;100.00;100875.29;87056;277;135944;-67
2024/01/24 08:10:28;;;;;;;32.70;23.30;;;;;;;2.21;100.00;100873.88;87215;273;24986;-67
2024/01/24 08:12:30;;;;;;;37.60;24.80;;;;;;;2.22;100.00;100869.91;87126;274;136886;-65
2024/01/24 08:14:32;;;;;;;37.30;24.50;;;;;;;2.28;100.00;100865.58;87291;266;22566;-70
2024/01/24 08:16:33;;;;;;;33.80;23.60;;;;;;;2.34;100.00;100862.65;87158;269;137218;-67
2024/01/24 08:18:36;;;;;;;37.70;24.80;;;;;;;2.42;100.00;100866.94;87352;277;25259;-69
2024/01/24 08:20:38;;;;;;;37.00;26.10;;;;;;;2.49;100.00;100868.60;87212;266;137277;-70
2024/01/24 08:22:40;;;;;;;41.40;27.80;;;;;;;2.49;100.00;100867.73;87127;265;22555;-70
2024/01/24 08:24:44;;;;;;;41.10;25.70;;;;;;;2.49;100.00;100862.00;87078;270;136506;-69
2024/01/24 08:26:46;;;;;;;42.60;25.20;;;;;;;2.52;100.00;100861.34;87207;269;25124;-67
2024/01/24 08:28:49;;;;;;;38.90;27.00;;;;;;;2.58;100.00;100859.64;87214;268;137224;-69
2024/01/24 08:30:51;;;;;;;34.60;24.20;;;;;;;2.68;100.00;100853.77;87244;273;23024;-69
2024/01/24 08:32:53;;;;;;;33.70;25.50;;;;;;;2.74;100.00;100846.97;87051;268;136975;-68
2024/01/24 08:34:55;;;;;;;35.90;24.20;;;;;;;2.74;100.00;100849.08;87270;277;25130;-67
2024/01/24 08:36:57;;;;;;;43.20;27.00;;;;;;;2.70;100.00;100847.15;87145;261;136354;-67
2024/01/24 08:38:59;;;;;;;39.20;26.50;;;;;;;2.64;100.00;100838.64;87146;274;22638;-67
2024/01/24 08:41:02;;;;;;;42.00;27.70;;;;;;;2.66;100.00;100838.01;87116;270;137234;-69
2024/01/24 08:43:04;;;;;;;46.20;29.60;;;;;;;2.68;100.00;100830.05;87092;277;22580;-72
2024/01/24 08:45:08;;;;;;;45.00;28.00;;;;;;;2.72;100.00;100832.06;87204;268;137188;-66
2024/01/24 08:47:09;;;;;;;42.60;27.30;;;;;;;2.73;100.00;100829.13;87534;273;24008;-71
2024/01/24 08:49:12;;;;;;;43.00;28.30;;;;;;;2.72;100.00;100825.02;87144;273;136879;-68
2024/01/24 08:51:15;;;;;;;44.80;30.20;;;;;;;2.67;100.00;100825.13;87236;270;25006;-67
2024/01/24 08:53:17;;;;;;;40.70;27.30;;;;;;;2.61;100.00;100816.14;87126;265;137696;-68
2024/01/24 08:55:19;;;;;;;41.60;26.40;;;;;;;2.58;100.00;100810.73;87091;278;23024;-68
2024/01/24 08:57:21;;;;;;;45.70;29.40;;;;;;;2.62;100.00;100807.63;87137;265;138075;-67
2024/01/24 08:59:23;;;;;;;45.10;27.30;;;;;;;2.61;100.00;100803.27;87254;267;25054;-65
2024/01/24 09:01:25;;;;;;;44.20;30.20;;;;;;;2.61;100.00;100800.14;87122;273;137320;-67
2024/01/24 09:03:30;;;;;;;43.10;26.90;;;;;;;2.62;100.00;100794.80;87146;270;22558;-65
2024/01/24 09:05:32;;;;;;;43.60;27.40;;;;;;;2.62;100.00;100789.52;87076;268;136737;-67
2024/01/24 09:07:35;;;;;;;41.90;28.50;;;;;;;2.58;100.00;100787.79;87155;265;24888;-66
2024/01/24 09:09:41;;;;;;;45.90;30.30;;;;;;;2.52;100.00;100781.34;87120;269;136451;-67
2024/01/24 09:11:44;;;;;;;37.30;26.70;;;;;;;2.50;100.00;100774.64;87149;270;24117;-67
2024/01/24 09:13:57;;;;;;;43.60;28.30;;;;;;;2.56;100.00;100767.17;87092;273;136967;-70
2024/01/24 09:16:00;;;;;;;41.10;26.80;;;;;;;2.63;100.00;100762.27;87290;265;23747;-67
2024/01/24 09:18:02;;;;;;;42.00;28.70;;;;;;;2.70;100.00;100753.54;87094;269;137076;-66
2024/01/24 09:20:06;;;;;;;38.60;26.90;;;;;;;2.74;100.00;100750.29;87131;272;137084;-71